Padre Island — WDB4436 — position and weather

sailwx.info

Track history (hours):
 
Tides and Currents Weather Stations Pressure Air Temp Water Temp Dewpoint Dewpoint Depression Visibility Wind Speed Wind Dir Waves Ship Positions

Padre Island

Owner: Great Lakes Dredge & Dock Company, Oak Brook, IL. More information available from US FCC via Universal Licensing System and Coast Guard Vessel Documentation Center.

Last reported at 2016-Apr-30 10:33 UTC. Time now 2016-Apr-30 11:13 UTC.
Position N 39°41' W 074°04'.

Length 86 m; draft 19.6 m.

Type: Dredging. MMSI: 367525000.

Date/timePositionNaut miles runAvg speedWind from/ knotsBaromVisibWave heightAir tempDewpointWater temp
2016-Apr-30 10:33N 39°41' W 074°04'1 0.6
2016-Apr-30 09:33N 39°40' W 074°04'1 1.2
2016-Apr-30 08:32N 39°42' W 074°04'3 3.4
2016-Apr-30 07:32N 39°42' W 073°60'1 0.6
2016-Apr-30 06:33N 39°42' W 074°00'1 1.1
2016-Apr-30 05:33N 39°42' W 074°02'1 1.5
2016-Apr-30 04:33N 39°41' W 074°03'2 1.5
2016-Apr-30 03:32N 39°40' W 074°05'0 0.3
2016-Apr-30 02:31N 39°40' W 074°04'2 2.2
2016-Apr-30 01:32N 39°41' W 074°02'1 1.2
2016-Apr-30 00:33N 39°40' W 074°03'6 5.9
2016-Apr-29 23:33N 39°36' W 074°09'4 3.9
2016-Apr-29 22:32N 39°34' W 074°13'1 1.2
2016-Apr-29 21:33N 39°35' W 074°12'9 8.5
2016-Apr-29 20:33N 39°41' W 074°04'1 0.5
2016-Apr-29 19:31N 39°40' W 074°04'7 6.7
2016-Apr-29 18:32N 39°36' W 074°10'3 2.7
2016-Apr-29 17:33N 39°34' W 074°13'0 0.0
2016-Apr-29 16:31N 39°34' W 074°13'7 7.3
2016-Apr-29 15:33N 39°39' W 074°06'3 2.7
2016-Apr-29 14:33N 39°40' W 074°03'5 5.4
2016-Apr-29 13:33N 39°37' W 074°09'4 4.2
2016-Apr-29 12:33N 39°34' W 074°13'1 1.4
2016-Apr-29 11:33N 39°35' W 074°12'8 8.5
2016-Apr-29 10:33N 39°41' W 074°03'0 0.5
2016-Apr-29 09:33N 39°40' W 074°04'7 6.9
2016-Apr-29 08:33N 39°36' W 074°10'3 2.6
2016-Apr-29 07:33N 39°34' W 074°13'0 0.0
2016-Apr-29 06:30N 39°34' W 074°13'4 4.5
2016-Apr-29 05:33N 39°37' W 074°09'6 5.8
2016-Apr-29 04:33N 39°41' W 074°03'2 2.1
2016-Apr-29 03:33N 39°39' W 074°05'8 8.0
2016-Apr-29 02:33N 39°34' W 074°13'0 0.0
2016-Apr-29 01:33N 39°34' W 074°13'6 5.7
2016-Apr-29 00:33N 39°38' W 074°08'4 4.4
2016-Apr-28 23:32N 39°41' W 074°03'2 2.1
2016-Apr-28 22:33N 39°39' W 074°05'8 8.1
2016-Apr-28 21:33N 39°34' W 074°13'0 0.0
2016-Apr-28 20:30N 39°34' W 074°13'4 3.7
2016-Apr-28 19:33N 39°37' W 074°10'6 6.5
2016-Apr-28 18:33N 39°41' W 074°03'1 1.4
2016-Apr-28 17:33N 39°40' W 074°04'9 8.7
2016-Apr-28 16:33N 39°34' W 074°13'0 0.0
2016-Apr-28 15:32N 39°34' W 074°13'1 0.8
2016-Apr-28 14:33N 39°35' W 074°12'8 8.4
2016-Apr-28 13:33N 39°40' W 074°04'1 1.0
2016-Apr-28 12:33N 39°41' W 074°03'6 5.7
2016-Apr-28 11:28N 39°37' W 074°09'4 4.2
2016-Apr-28 10:33N 39°34' W 074°13'1 0.6
2016-Apr-28 09:33N 39°35' W 074°13'3 2.8
2016-Apr-28 08:33N 39°37' W 074°10'6 6.1
2016-Apr-28 07:33N 39°40' W 074°04'4 4.3
2016-Apr-28 06:33N 39°38' W 074°08'5 5.3
2016-Apr-28 05:33N 39°34' W 074°13'1 0.5
2016-Apr-28 04:33N 39°35' W 074°13'6 5.5
2016-Apr-28 03:33N 39°38' W 074°07'4 3.8
2016-Apr-28 02:33N 39°41' W 074°03'6 6.1
2016-Apr-28 01:33N 39°37' W 074°09'4 3.8
2016-Apr-28 00:32N 39°34' W 074°13'3 2.7
2016-Apr-27 23:33N 39°36' W 074°10'7 7.3
2016-Apr-27 22:33N 39°41' W 074°03'2 2.1
2016-Apr-27 21:33N 39°39' W 074°05'8 7.8
2016-Apr-27 20:33N 39°34' W 074°13'0 0.4
2016-Apr-27 19:32N 39°35' W 074°13'9 9.0
2016-Apr-27 18:33N 39°40' W 074°04'1 0.5
2016-Apr-27 17:33N 39°40' W 074°04'9 8.7
2016-Apr-27 16:32N 39°34' W 074°13'0 0.0
2016-Apr-27 15:32N 39°34' W 074°13'8 7.7
2016-Apr-27 14:33N 39°39' W 074°05'2 2.4
2016-Apr-27 13:33N 39°41' W 074°04'2 1.6
2016-Apr-27 12:33N 39°41' W 074°06'9 8.4
2016-Apr-27 11:31N 39°34' W 074°13'0 0.0
2016-Apr-27 10:33N 39°34' W 074°13'1 1.3
2016-Apr-27 09:33N 39°35' W 074°12'8 8.0
2016-Apr-27 08:33N 39°40' W 074°03'1 0.7
2016-Apr-27 07:33N 39°40' W 074°04'8 8.3
2016-Apr-27 06:33N 39°35' W 074°13'1 0.6
2016-Apr-27 05:31N 39°34' W 074°13'4 4.5
2016-Apr-27 04:32N 39°37' W 074°09'5 5.1
2016-Apr-27 03:32N 39°40' W 074°04'2 2.4
2016-Apr-27 02:32N 39°39' W 074°06'7 7.3
2016-Apr-27 01:33N 39°34' W 074°13'0 0.0
2016-Apr-27 00:31N 39°34' W 074°13'4 4.3
2016-Apr-26 23:33N 39°37' W 074°09'6 5.5
2016-Apr-26 22:30N 39°41' W 074°03'5 4.9
2016-Apr-26 21:31N 39°38' W 074°08'5 5.1
2016-Apr-26 20:33N 39°34' W 074°13'1 0.6
2016-Apr-26 19:33N 39°35' W 074°12'7 6.9
2016-Apr-26 18:33N 39°39' W 074°06'2 2.0
2016-Apr-26 17:33N 39°41' W 074°04'7 6.7
2016-Apr-26 16:33N 39°36' W 074°10'3 3.0
2016-Apr-26 15:33N 39°34' W 074°13'3 3.4
2016-Apr-26 14:33N 39°37' W 074°10'7 6.4
2016-Apr-26 13:33N 39°41' W 074°03'2 1.4
2016-Apr-26 12:09N 39°40' W 074°05'0 0.0
2016-Apr-26 11:33N 39°40' W 074°05'6 5.9
2016-Apr-26 10:33N 39°36' W 074°11'2 2.0
2016-Apr-26 09:32N 39°34' W 074°13'1 0.6
2016-Apr-26 08:33N 39°35' W 074°13'5 5.1
2016-Apr-26 07:33N 39°38' W 074°07'4 4.2
2016-Apr-26 06:33N 39°41' W 074°03'7 7.1
2016-Apr-26 05:33N 39°36' W 074°10'3 2.6
2016-Apr-26 04:29N 39°34' W 074°13'5 5.7
2016-Apr-26 03:33N 39°38' W 074°08'4 3.4
2016-Apr-26 02:22N 39°40' W 074°04'5 6.7
2016-Apr-26 01:33N 39°37' W 074°09'4 3.0
2016-Apr-26 00:16N 39°34' W 074°13'3 4.8
2016-Apr-25 23:33N 39°37' W 074°10'6 5.3
2016-Apr-25 22:21N 39°41' W 074°03'2 1.7
2016-Apr-25 21:15N 39°40' W 074°05'0 0.0
2016-Apr-25 20:27N 39°40' W 074°05'2 1.9
2016-Apr-25 19:32N 39°38' W 074°07'6 6.3
2016-Apr-25 18:33N 39°34' W 074°13'0 0.0
2016-Apr-25 17:33N 39°34' W 074°13'8 8.0
2016-Apr-25 16:33N 39°40' W 074°05'2 1.9
2016-Apr-25 15:33N 39°41' W 074°03'8 8.4
2016-Apr-25 14:33N 39°35' W 074°12'2 1.5
2016-Apr-25 13:33N 39°34' W 074°13'5 5.3
2016-Apr-25 12:33N 39°37' W 074°08'5 4.8
2016-Apr-25 11:34N 39°41' W 074°03'6 5.8
2016-Apr-25 10:32N 39°37' W 074°09'4 4.1
2016-Apr-25 09:33N 39°34' W 074°13'3 2.7
2016-Apr-25 08:34N 39°36' W 074°10'7 7.0
2016-Apr-25 07:31N 39°41' W 074°04'3 3.2
2016-Apr-25 06:33N 39°39' W 074°06'7 6.9
2016-Apr-25 05:34N 39°34' W 074°13'0 0.3
2016-Apr-25 04:33N 39°35' W 074°13'1 0.7
2016-Apr-25 03:33N 39°35' W 074°12'7 6.9
2016-Apr-25 02:33N 39°40' W 074°06'2 2.3
2016-Apr-25 01:33N 39°41' W 074°03'10 9.4
2016-Apr-25 00:31N 39°35' W 074°13'0 0.4
2016-Apr-24 23:33N 39°34' W 074°13'1 0.7
2016-Apr-24 22:33N 39°35' W 074°12'4 4.4
2016-Apr-24 21:33N 39°38' W 074°08'5 4.8
2016-Apr-24 20:34N 39°41' W 074°04'4 3.9
2016-Apr-24 19:33N 39°38' W 074°07'6 6.0
2016-Apr-24 18:33N 39°34' W 074°13'1 1.5
2016-Apr-24 17:33N 39°35' W 074°12'9 8.6
2016-Apr-24 16:33N 39°41' W 074°03'0 0.5
2016-Apr-24 15:33N 39°41' W 074°03'8 8.4
2016-Apr-24 14:33N 39°35' W 074°12'1 1.5
2016-Apr-24 13:33N 39°34' W 074°13'5 4.9
2016-Apr-24 12:33N 39°37' W 074°08'5 5.1
2016-Apr-24 11:33N 39°41' W 074°04'5 5.1
2016-Apr-24 10:33N 39°37' W 074°08'5 4.8
2016-Apr-24 09:32N 39°34' W 074°13'2 1.8
2016-Apr-24 08:33N 39°35' W 074°11'8 8.4
2016-Apr-24 07:33N 39°41' W 074°03'0 0.5
2016-Apr-24 06:33N 39°41' W 074°03'9 8.9
2016-Apr-24 05:33N 39°35' W 074°12'1 0.9
2016-Apr-24 04:32N 39°34' W 074°13'6 5.8
2016-Apr-24 03:33N 39°38' W 074°07'4 4.3
2016-Apr-24 02:33N 39°41' W 074°03'4 4.4
2016-Apr-24 01:33N 39°38' W 074°08'6 5.7
2016-Apr-24 00:33N 39°34' W 074°13'0 0.1
2016-Apr-23 23:33N 39°34' W 074°13'9 9.1
2016-Apr-23 22:33N 39°41' W 074°04'1 0.9
2016-Apr-23 21:32N 39°41' W 074°03'1 0.7
2016-Apr-23 20:33N 39°40' W 074°04'0 0.0
2016-Apr-23 19:27N 39°40' W 074°04'0 0.0
2016-Apr-23 18:22N 39°40' W 074°04'0 0.0
2016-Apr-23 17:26N 39°40' W 074°04'0 0.0
2016-Apr-23 16:26N 39°40' W 074°04'0 0.0
2016-Apr-23 15:20N 39°40' W 074°04'0 0.0
2016-Apr-23 14:14N 39°41' W 074°04'0 0.1
2016-Apr-23 13:32N 39°41' W 074°04'0 0.0
2016-Apr-23 12:26N 39°41' W 074°04'0 0.0
2016-Apr-23 11:20N 39°41' W 074°04'0 0.0
2016-Apr-23 10:20N 39°41' W 074°04'0 0.0
2016-Apr-23 09:14N 39°41' W 074°04'0 0.0
2016-Apr-23 08:26N 39°41' W 074°04'0 0.0
2016-Apr-23 07:26N 39°41' W 074°04'0 0.0
2016-Apr-23 06:32N 39°41' W 074°04'0 0.0
2016-Apr-23 05:32N 39°41' W 074°04'0 0.0
2016-Apr-23 04:26N 39°41' W 074°04'0 0.0
2016-Apr-23 02:29N 39°41' W 074°04'0 0.0
2016-Apr-22 22:14N 39°41' W 074°04'0 0.0
2016-Apr-22 19:26N 39°41' W 074°04'0 0.0
2016-Apr-22 18:30N 39°41' W 074°04'0 0.0
2016-Apr-22 17:30N 39°41' W 074°04'0 0.0
2016-Apr-22 16:30N 39°41' W 074°04'0 0.0
2016-Apr-22 15:24N 39°41' W 074°04'1 0.3
2016-Apr-22 12:33N 39°40' W 074°05'18410.2
2016-Apr-21 18:33N 36°56' W 075°52'11 9.7
2016-Apr-21 17:24N 36°58' W 076°06'12 8.9
2016-Apr-21 16:06N 36°57' W 076°20'5 8.9
2016-Apr-21 15:33N 36°52' W 076°20'3 3.1
2016-Apr-21 14:33N 36°50' W 076°17'0 0.0
2016-Apr-21 13:33N 36°50' W 076°17'0 0.2
2016-Apr-21 12:33N 36°50' W 076°17'0 0.0
2016-Apr-21 11:31N 36°50' W 076°17'0 0.0
2016-Apr-21 10:31N 36°50' W 076°17'0 0.0
2016-Apr-21 09:31N 36°50' W 076°17'0 0.0
2016-Apr-21 08:31N 36°50' W 076°17'0 0.0
2016-Apr-21 07:31N 36°50' W 076°17'0 0.0
2016-Apr-21 06:28N 36°50' W 076°17'0 0.0
2016-Apr-21 05:31N 36°50' W 076°17'0 0.0
2016-Apr-21 04:31N 36°50' W 076°17'0 0.0
2016-Apr-21 03:31N 36°50' W 076°17'0 0.0
2016-Apr-21 02:31N 36°50' W 076°17'0 0.0
2016-Apr-21 01:31N 36°50' W 076°17'0 0.0
2016-Apr-21 00:26N 36°50' W 076°17'0 0.0
2016-Apr-20 23:32N 36°50' W 076°17'0 0.0
2016-Apr-20 22:31N 36°50' W 076°17'0 0.0
2016-Apr-20 21:32N 36°50' W 076°17'0 0.0
2016-Apr-20 20:32N 36°50' W 076°17'0 0.0
2016-Apr-20 19:32N 36°50' W 076°17'0 0.0
2016-Apr-20 18:32N 36°50' W 076°17'0 0.0
2016-Apr-20 17:32N 36°50' W 076°17'0 0.0
2016-Apr-20 16:32N 36°50' W 076°17'0 0.0
2016-Apr-20 15:32N 36°50' W 076°17'0 0.0
2016-Apr-20 14:26N 36°50' W 076°17'0 0.0
2016-Apr-20 13:33N 36°50' W 076°17'0 0.0
2016-Apr-20 12:33N 36°50' W 076°17'0 0.0
2016-Apr-20 11:33N 36°50' W 076°17'  
Track history (hours):
 
Tides and Currents Weather Stations Pressure Air Temp Water Temp Dewpoint Dewpoint Depression Visibility Wind Speed Wind Dir Waves Ship Positions

Padre Island

Owner: Great Lakes Dredge & Dock Company, Oak Brook, IL. More information available from US FCC via Universal Licensing System and Coast Guard Vessel Documentation Center.

Last reported at 2016-Apr-30 10:33 UTC. Time now 2016-Apr-30 11:13 UTC.
Position N 39°41' W 074°04'.

Length 86 m; draft 19.6 m.

Type: Dredging. MMSI: 367525000.

Date/timePositionNaut miles runAvg speedWind from/ knotsBaromVisibWave heightAir tempDewpointWater temp
2016-Apr-30 10:33N 39°41' W 074°04'1 0.6
2016-Apr-30 09:33N 39°40' W 074°04'1 1.2
2016-Apr-30 08:32N 39°42' W 074°04'3 3.4
2016-Apr-30 07:32N 39°42' W 073°60'1 0.6
2016-Apr-30 06:33N 39°42' W 074°00'1 1.1
2016-Apr-30 05:33N 39°42' W 074°02'1 1.5
2016-Apr-30 04:33N 39°41' W 074°03'2 1.5
2016-Apr-30 03:32N 39°40' W 074°05'0 0.3
2016-Apr-30 02:31N 39°40' W 074°04'2 2.2
2016-Apr-30 01:32N 39°41' W 074°02'1 1.2
2016-Apr-30 00:33N 39°40' W 074°03'6 5.9
2016-Apr-29 23:33N 39°36' W 074°09'4 3.9
2016-Apr-29 22:32N 39°34' W 074°13'1 1.2
2016-Apr-29 21:33N 39°35' W 074°12'9 8.5
2016-Apr-29 20:33N 39°41' W 074°04'1 0.5
2016-Apr-29 19:31N 39°40' W 074°04'7 6.7
2016-Apr-29 18:32N 39°36' W 074°10'3 2.7
2016-Apr-29 17:33N 39°34' W 074°13'0 0.0
2016-Apr-29 16:31N 39°34' W 074°13'7 7.3
2016-Apr-29 15:33N 39°39' W 074°06'3 2.7
2016-Apr-29 14:33N 39°40' W 074°03'5 5.4
2016-Apr-29 13:33N 39°37' W 074°09'4 4.2
2016-Apr-29 12:33N 39°34' W 074°13'1 1.4
2016-Apr-29 11:33N 39°35' W 074°12'8 8.5
2016-Apr-29 10:33N 39°41' W 074°03'0 0.5
2016-Apr-29 09:33N 39°40' W 074°04'7 6.9
2016-Apr-29 08:33N 39°36' W 074°10'3 2.6
2016-Apr-29 07:33N 39°34' W 074°13'0 0.0
2016-Apr-29 06:30N 39°34' W 074°13'4 4.5
2016-Apr-29 05:33N 39°37' W 074°09'6 5.8
2016-Apr-29 04:33N 39°41' W 074°03'2 2.1
2016-Apr-29 03:33N 39°39' W 074°05'8 8.0
2016-Apr-29 02:33N 39°34' W 074°13'0 0.0
2016-Apr-29 01:33N 39°34' W 074°13'6 5.7
2016-Apr-29 00:33N 39°38' W 074°08'4 4.4
2016-Apr-28 23:32N 39°41' W 074°03'2 2.1
2016-Apr-28 22:33N 39°39' W 074°05'8 8.1
2016-Apr-28 21:33N 39°34' W 074°13'0 0.0
2016-Apr-28 20:30N 39°34' W 074°13'4 3.7
2016-Apr-28 19:33N 39°37' W 074°10'6 6.5
2016-Apr-28 18:33N 39°41' W 074°03'1 1.4
2016-Apr-28 17:33N 39°40' W 074°04'9 8.7
2016-Apr-28 16:33N 39°34' W 074°13'0 0.0
2016-Apr-28 15:32N 39°34' W 074°13'1 0.8
2016-Apr-28 14:33N 39°35' W 074°12'8 8.4
2016-Apr-28 13:33N 39°40' W 074°04'1 1.0
2016-Apr-28 12:33N 39°41' W 074°03'6 5.7
2016-Apr-28 11:28N 39°37' W 074°09'4 4.2
2016-Apr-28 10:33N 39°34' W 074°13'1 0.6
2016-Apr-28 09:33N 39°35' W 074°13'3 2.8
2016-Apr-28 08:33N 39°37' W 074°10'6 6.1
2016-Apr-28 07:33N 39°40' W 074°04'4 4.3
2016-Apr-28 06:33N 39°38' W 074°08'5 5.3
2016-Apr-28 05:33N 39°34' W 074°13'1 0.5
2016-Apr-28 04:33N 39°35' W 074°13'6 5.5
2016-Apr-28 03:33N 39°38' W 074°07'4 3.8
2016-Apr-28 02:33N 39°41' W 074°03'6 6.1
2016-Apr-28 01:33N 39°37' W 074°09'4 3.8
2016-Apr-28 00:32N 39°34' W 074°13'3 2.7
2016-Apr-27 23:33N 39°36' W 074°10'7 7.3
2016-Apr-27 22:33N 39°41' W 074°03'2 2.1
2016-Apr-27 21:33N 39°39' W 074°05'8 7.8
2016-Apr-27 20:33N 39°34' W 074°13'0 0.4
2016-Apr-27 19:32N 39°35' W 074°13'9 9.0
2016-Apr-27 18:33N 39°40' W 074°04'1 0.5
2016-Apr-27 17:33N 39°40' W 074°04'9 8.7
2016-Apr-27 16:32N 39°34' W 074°13'0 0.0
2016-Apr-27 15:32N 39°34' W 074°13'8 7.7
2016-Apr-27 14:33N 39°39' W 074°05'2 2.4
2016-Apr-27 13:33N 39°41' W 074°04'2 1.6
2016-Apr-27 12:33N 39°41' W 074°06'9 8.4
2016-Apr-27 11:31N 39°34' W 074°13'0 0.0
2016-Apr-27 10:33N 39°34' W 074°13'1 1.3
2016-Apr-27 09:33N 39°35' W 074°12'8 8.0
2016-Apr-27 08:33N 39°40' W 074°03'1 0.7
2016-Apr-27 07:33N 39°40' W 074°04'8 8.3
2016-Apr-27 06:33N 39°35' W 074°13'1 0.6
2016-Apr-27 05:31N 39°34' W 074°13'4 4.5
2016-Apr-27 04:32N 39°37' W 074°09'5 5.1
2016-Apr-27 03:32N 39°40' W 074°04'2 2.4
2016-Apr-27 02:32N 39°39' W 074°06'7 7.3
2016-Apr-27 01:33N 39°34' W 074°13'0 0.0
2016-Apr-27 00:31N 39°34' W 074°13'4 4.3
2016-Apr-26 23:33N 39°37' W 074°09'6 5.5
2016-Apr-26 22:30N 39°41' W 074°03'5 4.9
2016-Apr-26 21:31N 39°38' W 074°08'5 5.1
2016-Apr-26 20:33N 39°34' W 074°13'1 0.6
2016-Apr-26 19:33N 39°35' W 074°12'7 6.9
2016-Apr-26 18:33N 39°39' W 074°06'2 2.0
2016-Apr-26 17:33N 39°41' W 074°04'7 6.7
2016-Apr-26 16:33N 39°36' W 074°10'3 3.0
2016-Apr-26 15:33N 39°34' W 074°13'3 3.4
2016-Apr-26 14:33N 39°37' W 074°10'7 6.4
2016-Apr-26 13:33N 39°41' W 074°03'2 1.4
2016-Apr-26 12:09N 39°40' W 074°05'0 0.0
2016-Apr-26 11:33N 39°40' W 074°05'6 5.9
2016-Apr-26 10:33N 39°36' W 074°11'2 2.0
2016-Apr-26 09:32N 39°34' W 074°13'1 0.6
2016-Apr-26 08:33N 39°35' W 074°13'5 5.1
2016-Apr-26 07:33N 39°38' W 074°07'4 4.2
2016-Apr-26 06:33N 39°41' W 074°03'7 7.1
2016-Apr-26 05:33N 39°36' W 074°10'3 2.6
2016-Apr-26 04:29N 39°34' W 074°13'5 5.7
2016-Apr-26 03:33N 39°38' W 074°08'4 3.4
2016-Apr-26 02:22N 39°40' W 074°04'5 6.7
2016-Apr-26 01:33N 39°37' W 074°09'4 3.0
2016-Apr-26 00:16N 39°34' W 074°13'3 4.8
2016-Apr-25 23:33N 39°37' W 074°10'6 5.3
2016-Apr-25 22:21N 39°41' W 074°03'2 1.7
2016-Apr-25 21:15N 39°40' W 074°05'0 0.0
2016-Apr-25 20:27N 39°40' W 074°05'2 1.9
2016-Apr-25 19:32N 39°38' W 074°07'6 6.3
2016-Apr-25 18:33N 39°34' W 074°13'0 0.0
2016-Apr-25 17:33N 39°34' W 074°13'8 8.0
2016-Apr-25 16:33N 39°40' W 074°05'2 1.9
2016-Apr-25 15:33N 39°41' W 074°03'8 8.4
2016-Apr-25 14:33N 39°35' W 074°12'2 1.5
2016-Apr-25 13:33N 39°34' W 074°13'5 5.3
2016-Apr-25 12:33N 39°37' W 074°08'5 4.8
2016-Apr-25 11:34N 39°41' W 074°03'6 5.8
2016-Apr-25 10:32N 39°37' W 074°09'4 4.1
2016-Apr-25 09:33N 39°34' W 074°13'3 2.7
2016-Apr-25 08:34N 39°36' W 074°10'7 7.0
2016-Apr-25 07:31N 39°41' W 074°04'3 3.2
2016-Apr-25 06:33N 39°39' W 074°06'7 6.9
2016-Apr-25 05:34N 39°34' W 074°13'0 0.3
2016-Apr-25 04:33N 39°35' W 074°13'1 0.7
2016-Apr-25 03:33N 39°35' W 074°12'7 6.9
2016-Apr-25 02:33N 39°40' W 074°06'2 2.3
2016-Apr-25 01:33N 39°41' W 074°03'10 9.4
2016-Apr-25 00:31N 39°35' W 074°13'0 0.4
2016-Apr-24 23:33N 39°34' W 074°13'1 0.7
2016-Apr-24 22:33N 39°35' W 074°12'4 4.4
2016-Apr-24 21:33N 39°38' W 074°08'5 4.8
2016-Apr-24 20:34N 39°41' W 074°04'4 3.9
2016-Apr-24 19:33N 39°38' W 074°07'6 6.0
2016-Apr-24 18:33N 39°34' W 074°13'1 1.5
2016-Apr-24 17:33N 39°35' W 074°12'9 8.6
2016-Apr-24 16:33N 39°41' W 074°03'0 0.5
2016-Apr-24 15:33N 39°41' W 074°03'8 8.4
2016-Apr-24 14:33N 39°35' W 074°12'1 1.5
2016-Apr-24 13:33N 39°34' W 074°13'5 4.9
2016-Apr-24 12:33N 39°37' W 074°08'5 5.1
2016-Apr-24 11:33N 39°41' W 074°04'5 5.1
2016-Apr-24 10:33N 39°37' W 074°08'5 4.8
2016-Apr-24 09:32N 39°34' W 074°13'2 1.8
2016-Apr-24 08:33N 39°35' W 074°11'8 8.4
2016-Apr-24 07:33N 39°41' W 074°03'0 0.5
2016-Apr-24 06:33N 39°41' W 074°03'9 8.9
2016-Apr-24 05:33N 39°35' W 074°12'1 0.9
2016-Apr-24 04:32N 39°34' W 074°13'6 5.8
2016-Apr-24 03:33N 39°38' W 074°07'4 4.3
2016-Apr-24 02:33N 39°41' W 074°03'4 4.4
2016-Apr-24 01:33N 39°38' W 074°08'6 5.7
2016-Apr-24 00:33N 39°34' W 074°13'0 0.1
2016-Apr-23 23:33N 39°34' W 074°13'9 9.1
2016-Apr-23 22:33N 39°41' W 074°04'1 0.9
2016-Apr-23 21:32N 39°41' W 074°03'1 0.7
2016-Apr-23 20:33N 39°40' W 074°04'0 0.0
2016-Apr-23 19:27N 39°40' W 074°04'0 0.0
2016-Apr-23 18:22N 39°40' W 074°04'0 0.0
2016-Apr-23 17:26N 39°40' W 074°04'0 0.0
2016-Apr-23 16:26N 39°40' W 074°04'0 0.0
2016-Apr-23 15:20N 39°40' W 074°04'0 0.0
2016-Apr-23 14:14N 39°41' W 074°04'0 0.1
2016-Apr-23 13:32N 39°41' W 074°04'0 0.0
2016-Apr-23 12:26N 39°41' W 074°04'0 0.0
2016-Apr-23 11:20N 39°41' W 074°04'0 0.0
2016-Apr-23 10:20N 39°41' W 074°04'0 0.0
2016-Apr-23 09:14N 39°41' W 074°04'0 0.0
2016-Apr-23 08:26N 39°41' W 074°04'0 0.0
2016-Apr-23 07:26N 39°41' W 074°04'0 0.0
2016-Apr-23 06:32N 39°41' W 074°04'0 0.0
2016-Apr-23 05:32N 39°41' W 074°04'0 0.0
2016-Apr-23 04:26N 39°41' W 074°04'0 0.0
2016-Apr-23 02:29N 39°41' W 074°04'0 0.0
2016-Apr-22 22:14N 39°41' W 074°04'0 0.0
2016-Apr-22 19:26N 39°41' W 074°04'0 0.0
2016-Apr-22 18:30N 39°41' W 074°04'0 0.0
2016-Apr-22 17:30N 39°41' W 074°04'0 0.0
2016-Apr-22 16:30N 39°41' W 074°04'0 0.0
2016-Apr-22 15:24N 39°41' W 074°04'1 0.3
2016-Apr-22 12:33N 39°40' W 074°05'18410.2
2016-Apr-21 18:33N 36°56' W 075°52'11 9.7
2016-Apr-21 17:24N 36°58' W 076°06'12 8.9
2016-Apr-21 16:06N 36°57' W 076°20'5 8.9
2016-Apr-21 15:33N 36°52' W 076°20'3 3.1
2016-Apr-21 14:33N 36°50' W 076°17'0 0.0
2016-Apr-21 13:33N 36°50' W 076°17'0 0.2
2016-Apr-21 12:33N 36°50' W 076°17'0 0.0
2016-Apr-21 11:31N 36°50' W 076°17'0 0.0
2016-Apr-21 10:31N 36°50' W 076°17'0 0.0
2016-Apr-21 09:31N 36°50' W 076°17'0 0.0
2016-Apr-21 08:31N 36°50' W 076°17'0 0.0
2016-Apr-21 07:31N 36°50' W 076°17'0 0.0
2016-Apr-21 06:28N 36°50' W 076°17'0 0.0
2016-Apr-21 05:31N 36°50' W 076°17'0 0.0
2016-Apr-21 04:31N 36°50' W 076°17'0 0.0
2016-Apr-21 03:31N 36°50' W 076°17'0 0.0
2016-Apr-21 02:31N 36°50' W 076°17'0 0.0
2016-Apr-21 01:31N 36°50' W 076°17'0 0.0
2016-Apr-21 00:26N 36°50' W 076°17'0 0.0
2016-Apr-20 23:32N 36°50' W 076°17'0 0.0
2016-Apr-20 22:31N 36°50' W 076°17'0 0.0
2016-Apr-20 21:32N 36°50' W 076°17'0 0.0
2016-Apr-20 20:32N 36°50' W 076°17'0 0.0
2016-Apr-20 19:32N 36°50' W 076°17'0 0.0
2016-Apr-20 18:32N 36°50' W 076°17'0 0.0
2016-Apr-20 17:32N 36°50' W 076°17'0 0.0
2016-Apr-20 16:32N 36°50' W 076°17'0 0.0
2016-Apr-20 15:32N 36°50' W 076°17'0 0.0
2016-Apr-20 14:26N 36°50' W 076°17'0 0.0
2016-Apr-20 13:33N 36°50' W 076°17'0 0.0
2016-Apr-20 12:33N 36°50' W 076°17'0 0.0
2016-Apr-20 11:33N 36°50' W 076°17'  

Dump ship's entire track history